createdAt,value
2023-04-14T00:15:09.909Z,44.7
2023-04-14T00:35:09.896Z,44.7
2023-04-14T00:55:09.837Z,44.6
2023-04-14T01:15:09.824Z,44.4
2023-04-14T01:35:09.823Z,44.4
2023-04-14T01:55:09.771Z,44.3
2023-04-14T02:15:09.779Z,44.3
2023-04-14T02:35:09.739Z,44.3
2023-04-14T02:55:09.709Z,44.1
2023-04-14T03:15:09.699Z,44.1
2023-04-14T03:35:09.665Z,43.8
2023-04-14T03:55:09.620Z,44.0
2023-04-14T04:15:09.602Z,43.8
2023-04-14T04:35:09.586Z,44.3
2023-04-14T04:55:09.622Z,44.7
2023-04-14T05:15:09.546Z,44.7
2023-04-14T05:35:09.584Z,44.3
2023-04-14T05:55:09.511Z,43.9
2023-04-14T06:15:09.475Z,44.3
2023-04-14T06:35:09.454Z,44.3
2023-04-14T06:55:09.443Z,44.3
2023-04-14T07:15:09.401Z,44.3
2023-04-14T07:35:09.366Z,44.5
2023-04-14T07:55:09.341Z,44.7
2023-04-14T08:15:09.318Z,44.8
2023-04-14T08:35:09.274Z,45.0
2023-04-14T08:55:09.318Z,44.8
2023-04-14T09:15:09.397Z,44.8
2023-04-14T09:35:09.376Z,45.0
2023-04-14T09:55:09.305Z,45.2
2023-04-14T10:15:09.165Z,45.5
2023-04-14T10:35:09.138Z,45.1
2023-04-14T10:55:09.080Z,45.3
2023-04-14T11:15:09.085Z,45.4
2023-04-14T11:35:09.050Z,45.6
2023-04-14T11:55:09.007Z,45.7
2023-04-14T12:15:09.109Z,44.8
2023-04-14T12:35:09.115Z,44.6
2023-04-14T12:55:09.076Z,44.4
2023-04-14T13:15:09.114Z,45.5
2023-04-14T13:35:09.079Z,45.7
2023-04-14T13:55:08.884Z,45.9
2023-04-14T14:15:08.943Z,46.0
2023-04-14T14:35:08.999Z,46.2
2023-04-14T14:55:08.898Z,46.2
2023-04-14T15:15:08.949Z,46.3
2023-04-14T15:35:08.780Z,45.6
2023-04-14T15:55:08.727Z,45.5
2023-04-14T16:15:08.979Z,45.5
2023-04-14T16:35:08.824Z,45.4
2023-04-14T16:55:08.754Z,45.4
2023-04-14T17:15:08.781Z,45.4
2023-04-14T17:35:08.775Z,45.3
2023-04-14T17:55:08.687Z,45.2
2023-04-14T18:15:08.643Z,45.3
2023-04-14T18:35:08.486Z,45.3
2023-04-14T18:55:08.627Z,45.3
2023-04-14T19:15:08.596Z,45.3
2023-04-14T19:35:08.431Z,45.3
2023-04-14T19:55:08.504Z,45.3
2023-04-14T20:15:08.492Z,45.3
2023-04-14T20:35:08.349Z,45.2
2023-04-14T20:55:08.422Z,45.2
2023-04-14T21:15:24.687Z,45.1
2023-04-14T21:35:08.291Z,45.1
2023-04-14T21:55:08.317Z,45.2
2023-04-14T22:15:08.287Z,45.2
2023-04-14T22:35:08.189Z,45.2
2023-04-14T22:55:08.174Z,45.2
2023-04-14T23:15:08.134Z,45.3
2023-04-14T23:35:08.190Z,45.3
2023-04-14T23:55:08.105Z,45.3
